Harbour Bridge — 3EIQ5 — position and weather

sailwx.info

Track history (hours):
 
Tides and Currents Weather Stations Pressure Air Temp Water Temp Dewpoint Dewpoint Depression Visibility Wind Speed Wind Dir Waves Ship Positions

Harbour Bridge

Last reported at 2017-Sep-20 20:23 UTC. Time now 2017-Sep-25 11:37 UTC.
Position N 38°11' W 124°15'.

Length 336 m; draft 11.1 m.

Type: Ship (hazmat cat A). MMSI: 372367000.

Date/timePositionNaut miles runAvg speedWind from/ knotsBaromVisibWave heightAir tempDewpointWater temp
2017-Sep-20 20:23N 38°11' W 124°15'411.5
2017-Sep-20 20:00N 38°11' W 124°09'611.6
2017-Sep-20 19:31N 38°11' W 124°02'611.6
2017-Sep-20 19:01N 38°11' W 123°55'611.8
2017-Sep-20 18:31N 38°10' W 123°47'611.7
2017-Sep-20 18:01N 38°10' W 123°40'611.5
2017-Sep-20 17:31N 38°10' W 123°33'611.3
2017-Sep-20 17:01N 38°10' W 123°25'5 9.5
2017-Sep-20 16:31N 38°09' W 123°20'5 9.3
2017-Sep-20 16:01N 38°05' W 123°16'5 9.1
2017-Sep-20 15:31N 38°02' W 123°12'5 9.1
2017-Sep-20 15:01N 37°58' W 123°08'9 9.3
2017-Sep-20 14:00N 37°54' W 122°58'5 9.8
2017-Sep-20 13:31N 37°51' W 122°53'5 9.6
2017-Sep-20 13:01N 37°49' W 122°47'5 9.6
2017-Sep-20 12:31N 37°45' W 122°43'4 7.2
2017-Sep-20 12:01N 37°46' W 122°39'611.8
2017-Sep-20 11:30N 37°48' W 122°32'713.3
2017-Sep-20 11:00N 37°49' W 122°23'3 6.1
2017-Sep-20 10:30N 37°49' W 122°20'0 0.5
2017-Sep-20 09:58N 37°49' W 122°20'0 0.0
2017-Sep-20 09:28N 37°49' W 122°20'0 0.0
2017-Sep-20 08:58N 37°49' W 122°20'0 0.0
2017-Sep-20 08:28N 37°49' W 122°20'0 0.0
2017-Sep-20 07:58N 37°49' W 122°20'0 0.0
2017-Sep-20 07:28N 37°49' W 122°20'0 0.0
2017-Sep-20 06:58N 37°49' W 122°20'0 0.0
2017-Sep-20 06:28N 37°49' W 122°20'0 0.0
2017-Sep-20 05:58N 37°49' W 122°20'0 0.0
2017-Sep-20 05:28N 37°49' W 122°20'0 0.0
2017-Sep-20 04:58N 37°49' W 122°20'0 0.0
2017-Sep-20 04:28N 37°49' W 122°20'0 0.0
2017-Sep-20 03:58N 37°49' W 122°20'0 0.0
2017-Sep-20 03:28N 37°49' W 122°20'0 0.0
2017-Sep-20 02:58N 37°49' W 122°20'0 0.0
2017-Sep-20 02:28N 37°49' W 122°20'0 0.0
2017-Sep-20 01:58N 37°49' W 122°20'0 0.0
2017-Sep-20 01:28N 37°49' W 122°20'0 0.0
2017-Sep-20 00:58N 37°49' W 122°20'0 0.0
2017-Sep-20 00:28N 37°49' W 122°20'0 0.0
2017-Sep-19 23:58N 37°49' W 122°20'0 0.0
2017-Sep-19 23:28N 37°49' W 122°20'0 0.1
2017-Sep-19 22:58N 37°49' W 122°20'0 0.1
2017-Sep-19 22:28N 37°49' W 122°20'0 0.0
2017-Sep-19 21:58N 37°49' W 122°20'0 0.0
2017-Sep-19 21:28N 37°49' W 122°20'0 0.0
2017-Sep-19 20:58N 37°49' W 122°20'0 0.0
2017-Sep-19 20:28N 37°49' W 122°20'0 0.0
2017-Sep-19 19:58N 37°49' W 122°20'0 0.0
2017-Sep-19 19:28N 37°49' W 122°20'0 0.0
2017-Sep-19 18:58N 37°49' W 122°20'0 0.1
2017-Sep-19 18:28N 37°49' W 122°20'0 0.0
2017-Sep-19 17:58N 37°49' W 122°20'0 0.1
2017-Sep-19 17:28N 37°49' W 122°20'0 0.0
2017-Sep-19 16:58N 37°49' W 122°20'0 0.0
2017-Sep-19 16:31N 37°49' W 122°20'0 0.0
2017-Sep-19 16:01N 37°49' W 122°20'0 0.0
2017-Sep-19 15:28N 37°49' W 122°20'0 0.0
2017-Sep-19 15:01N 37°49' W 122°20'0 0.0
2017-Sep-19 14:28N 37°49' W 122°20'0 0.0
2017-Sep-19 13:58N 37°49' W 122°20'0 0.1
2017-Sep-19 13:30N 37°49' W 122°20'3 5.7
2017-Sep-19 13:00N 37°49' W 122°23'611.3
2017-Sep-19 12:31N 37°48' W 122°30'714.3
2017-Sep-19 12:00N 37°46' W 122°39'4 8.6
2017-Sep-19 11:30N 37°41' W 122°40'713.8
2017-Sep-19 11:00N 37°35' W 122°40'713.7
2017-Sep-19 10:30N 37°28' W 122°40'612.5
2017-Sep-19 10:00N 37°21' W 122°40'714.4
2017-Sep-19 09:31N 37°14' W 122°40'917.3
2017-Sep-19 09:01N 37°06' W 122°39'917.7
2017-Sep-19 08:30N 36°57' W 122°35'7718.1
2017-Sep-19 04:15N 35°48' W 121°53'417.8
2017-Sep-19 04:00N 35°45' W 121°50'1417.4
2017-Sep-19 03:12N 35°33' W 121°41'517.5
2017-Sep-19 02:56N 35°29' W 121°39'817.4
2017-Sep-19 02:30N 35°22' W 121°34'816.8
2017-Sep-19 02:01N 35°15' W 121°29'917.5
2017-Sep-19 01:30N 35°07' W 121°23'917.7
2017-Sep-19 01:01N 34°60' W 121°18'917.8
2017-Sep-19 00:31N 34°52' W 121°12'917.6
2017-Sep-19 00:01N 34°45' W 121°07'917.5
2017-Sep-18 23:30N 34°37' W 121°01'816.8
2017-Sep-18 23:01N 34°30' W 120°56'815.5
2017-Sep-18 22:31N 34°25' W 120°48'816.6
2017-Sep-18 22:01N 34°23' W 120°39'916.7
2017-Sep-18 21:30N 34°21' W 120°29'917.4
2017-Sep-18 20:58N 34°19' W 120°18'817.6
2017-Sep-18 20:31N 34°16' W 120°09'917.6
2017-Sep-18 20:00N 34°14' W 119°58'917.3
2017-Sep-18 19:30N 34°12' W 119°48'917.5
2017-Sep-18 19:01N 34°10' W 119°38'917.6
2017-Sep-18 18:30N 34°07' W 119°28'917.5
2017-Sep-18 18:00N 34°05' W 119°18'917.6
2017-Sep-18 17:30N 34°01' W 119°08'714.2
2017-Sep-18 17:00N 33°57' W 119°01'611.4
2017-Sep-18 16:30N 33°55' W 118°55'611.4
2017-Sep-18 16:00N 33°52' W 118°49'611.4
2017-Sep-18 15:30N 33°49' W 118°43'611.5
2017-Sep-18 15:00N 33°46' W 118°37'611.5
2017-Sep-18 14:30N 33°43' W 118°31'611.2
2017-Sep-18 14:00N 33°41' W 118°25'510.9
2017-Sep-18 13:30N 33°38' W 118°19'610.7
2017-Sep-18 12:59N 33°39' W 118°12'5 9.8
2017-Sep-18 12:30N 33°43' W 118°11'2 2.9
2017-Sep-18 11:59N 33°45' W 118°12'0 0.0
2017-Sep-18 11:20N 33°45' W 118°12'0 0.0
2017-Sep-18 10:56N 33°45' W 118°12'0 0.0
2017-Sep-18 04:29N 33°45' W 118°12'0 0.0
2017-Sep-18 03:56N 33°45' W 118°12'0 0.0
2017-Sep-17 20:20N 33°45' W 118°12'0 0.0
2017-Sep-17 19:08N 33°45' W 118°12'0 0.0
2017-Sep-17 18:44N 33°45' W 118°12'0 0.0
2017-Sep-17 18:30N 33°45' W 118°12'0 0.0
2017-Sep-17 08:50N 33°45' W 118°12'0 0.1
2017-Sep-17 08:26N 33°45' W 118°12'0 0.0
2017-Sep-17 05:29N 33°45' W 118°12'0 0.0
2017-Sep-17 04:38N 33°45' W 118°12'0 0.0
2017-Sep-17 04:23N 33°45' W 118°12'0 0.0
2017-Sep-17 00:32N 33°45' W 118°12'0 0.0
2017-Sep-17 00:26N 33°45' W 118°12'0 0.0
2017-Sep-16 22:20N 33°45' W 118°12'0 0.0
2017-Sep-16 21:56N 33°45' W 118°12'0 0.1
2017-Sep-16 21:02N 33°45' W 118°12'0 0.0
2017-Sep-16 20:56N 33°45' W 118°12'0 0.1
2017-Sep-16 20:26N 33°45' W 118°12'0 0.0
2017-Sep-16 19:44N 33°45' W 118°12'0 0.0
2017-Sep-16 19:20N 33°45' W 118°12'0 0.1
2017-Sep-16 18:59N 33°45' W 118°12'0 0.1
2017-Sep-16 18:26N 33°45' W 118°12'0 0.0
2017-Sep-16 07:02N 33°45' W 118°12'0 0.0
2017-Sep-16 06:32N 33°45' W 118°12'0 0.0
2017-Sep-16 03:50N 33°45' W 118°12'0 0.0
2017-Sep-16 03:20N 33°45' W 118°12'0 0.0
2017-Sep-16 02:50N 33°45' W 118°12'0 0.0
2017-Sep-15 23:14N 33°45' W 118°12'0 0.0
2017-Sep-15 22:56N 33°45' W 118°12'0 0.1
2017-Sep-15 21:56N 33°45' W 118°12'0 0.1
2017-Sep-15 21:26N 33°45' W 118°12'0 0.1
2017-Sep-15 20:50N 33°45' W 118°12'0 0.1
2017-Sep-15 20:23N 33°45' W 118°12'0 0.0
2017-Sep-15 19:56N 33°45' W 118°12'0 0.0
2017-Sep-15 19:26N 33°45' W 118°12'0 0.0
2017-Sep-15 18:59N 33°45' W 118°12'0 0.0
2017-Sep-15 09:08N 33°45' W 118°12'0 0.0
2017-Sep-15 08:56N 33°45' W 118°12'0 0.0
2017-Sep-15 08:14N 33°45' W 118°12'0 0.0
2017-Sep-15 07:41N 33°45' W 118°12'0 0.0
2017-Sep-15 05:26N 33°45' W 118°12'0 0.0
2017-Sep-15 04:44N 33°45' W 118°12'0 0.0
2017-Sep-15 04:08N 33°45' W 118°12'0 0.0
2017-Sep-15 03:44N 33°45' W 118°12'0 0.0
2017-Sep-15 03:26N 33°45' W 118°12'0 0.0
2017-Sep-15 02:56N 33°45' W 118°12'0 0.0
2017-Sep-15 00:44N 33°45' W 118°12'0 0.0
2017-Sep-15 00:23N 33°45' W 118°12'0 0.0
2017-Sep-14 23:56N 33°45' W 118°12'0 0.0
2017-Sep-14 23:26N 33°45' W 118°12'0 0.0
2017-Sep-14 22:14N 33°45' W 118°12'0 0.0
2017-Sep-14 21:56N 33°45' W 118°12'1 1.2
2017-Sep-14 21:29N 33°44' W 118°12'3 6.9
2017-Sep-14 21:01N 33°41' W 118°11'3 6.8
2017-Sep-14 20:31N 33°38' W 118°12'4 8.5
2017-Sep-14 20:00N 33°36' W 118°16'610.4
2017-Sep-14 19:29N 33°37' W 118°23'611.7
2017-Sep-14 18:57N 33°40' W 118°30'511.2
2017-Sep-14 18:30N 33°42' W 118°35'611.1
2017-Sep-14 18:01N 33°45' W 118°40'611.0
2017-Sep-14 17:30N 33°48' W 118°46'611.1
2017-Sep-14 17:01N 33°51' W 118°52'611.2
2017-Sep-14 16:31N 33°53' W 118°58'611.4
2017-Sep-14 16:01N 33°56' W 119°04'611.7
2017-Sep-14 15:31N 33°59' W 119°10'611.3
2017-Sep-14 14:59N 34°02' W 119°16'611.8
2017-Sep-14 14:31N 34°04' W 119°22'611.8
2017-Sep-14 14:00N 34°05' W 119°29'611.7
2017-Sep-14 13:28N 34°07' W 119°37'611.6
2017-Sep-14 12:58N 34°09' W 119°43'511.7
2017-Sep-14 12:31N 34°10' W 119°50'611.8
2017-Sep-14 11:59N 34°12' W 119°57'612.2
2017-Sep-14 11:30N 34°13' W 120°04'611.9
2017-Sep-14 11:00N 34°15' W 120°11'611.5
2017-Sep-14 10:29N 34°16' W 120°18'611.5
2017-Sep-14 09:59N 34°18' W 120°24'511.0
2017-Sep-14 09:30N 34°19' W 120°30'5 9.5
2017-Sep-14 09:00N 34°21' W 120°36'5 9.6
2017-Sep-14 08:30N 34°22' W 120°42'5 9.5
2017-Sep-14 08:00N 34°23' W 120°47'5 9.6
2017-Sep-14 07:30N 34°24' W 120°53'510.8
2017-Sep-14 07:01N 34°26' W 120°59'611.5
2017-Sep-14 06:31N 34°29' W 121°05'611.6
2017-Sep-14 06:01N 34°31' W 121°12'611.5
2017-Sep-14 05:31N 34°33' W 121°18'711.4
2017-Sep-14 04:51N 34°35' W 121°27'411.4
2017-Sep-14 04:31N 34°37' W 121°31'611.1
2017-Sep-14 04:01N 34°39' W 121°38'1111.6
2017-Sep-14 03:04N 34°45' W 121°49'111.2
2017-Sep-14 03:00N 34°45' W 121°49'611.4
2017-Sep-14 02:31N 34°48' W 121°56'2711.5
2017-Sep-14 00:11N 34°58' W 122°25'611.8
2017-Sep-13 23:43N 35°01' W 122°32'311.5
2017-Sep-13 23:27N 35°02' W 122°35'511.8
2017-Sep-13 22:59N 35°04' W 122°41'2011.8
2017-Sep-13 21:18N 35°12' W 123°03'311.8
2017-Sep-13 21:01N 35°14' W 123°07'611.9
2017-Sep-13 20:28N 35°16' W 123°14'511.9
2017-Sep-13 20:01N 35°19' W 123°21'612.0
2017-Sep-13 19:31N 35°21' W 123°27'611.9
2017-Sep-13 19:00N 35°24' W 123°34'611.9
2017-Sep-13 18:31N 35°26' W 123°41'611.7
2017-Sep-13 18:00N 35°28' W 123°47'1012.1
2017-Sep-13 17:12N 35°32' W 123°58'21518.1
2017-Sep-13 05:21N 37°10' W 127°56'720.2
2017-Sep-13 04:59N 37°15' W 128°03'  
Track history (hours):
 
Tides and Currents Weather Stations Pressure Air Temp Water Temp Dewpoint Dewpoint Depression Visibility Wind Speed Wind Dir Waves Ship Positions

Harbour Bridge

Last reported at 2017-Sep-20 20:23 UTC. Time now 2017-Sep-25 11:37 UTC.
Position N 38°11' W 124°15'.

Length 336 m; draft 11.1 m.

Type: Ship (hazmat cat A). MMSI: 372367000.

Date/timePositionNaut miles runAvg speedWind from/ knotsBaromVisibWave heightAir tempDewpointWater temp
2017-Sep-20 20:23N 38°11' W 124°15'411.5
2017-Sep-20 20:00N 38°11' W 124°09'611.6
2017-Sep-20 19:31N 38°11' W 124°02'611.6
2017-Sep-20 19:01N 38°11' W 123°55'611.8
2017-Sep-20 18:31N 38°10' W 123°47'611.7
2017-Sep-20 18:01N 38°10' W 123°40'611.5
2017-Sep-20 17:31N 38°10' W 123°33'611.3
2017-Sep-20 17:01N 38°10' W 123°25'5 9.5
2017-Sep-20 16:31N 38°09' W 123°20'5 9.3
2017-Sep-20 16:01N 38°05' W 123°16'5 9.1
2017-Sep-20 15:31N 38°02' W 123°12'5 9.1
2017-Sep-20 15:01N 37°58' W 123°08'9 9.3
2017-Sep-20 14:00N 37°54' W 122°58'5 9.8
2017-Sep-20 13:31N 37°51' W 122°53'5 9.6
2017-Sep-20 13:01N 37°49' W 122°47'5 9.6
2017-Sep-20 12:31N 37°45' W 122°43'4 7.2
2017-Sep-20 12:01N 37°46' W 122°39'611.8
2017-Sep-20 11:30N 37°48' W 122°32'713.3
2017-Sep-20 11:00N 37°49' W 122°23'3 6.1
2017-Sep-20 10:30N 37°49' W 122°20'0 0.5
2017-Sep-20 09:58N 37°49' W 122°20'0 0.0
2017-Sep-20 09:28N 37°49' W 122°20'0 0.0
2017-Sep-20 08:58N 37°49' W 122°20'0 0.0
2017-Sep-20 08:28N 37°49' W 122°20'0 0.0
2017-Sep-20 07:58N 37°49' W 122°20'0 0.0
2017-Sep-20 07:28N 37°49' W 122°20'0 0.0
2017-Sep-20 06:58N 37°49' W 122°20'0 0.0
2017-Sep-20 06:28N 37°49' W 122°20'0 0.0
2017-Sep-20 05:58N 37°49' W 122°20'0 0.0
2017-Sep-20 05:28N 37°49' W 122°20'0 0.0
2017-Sep-20 04:58N 37°49' W 122°20'0 0.0
2017-Sep-20 04:28N 37°49' W 122°20'0 0.0
2017-Sep-20 03:58N 37°49' W 122°20'0 0.0
2017-Sep-20 03:28N 37°49' W 122°20'0 0.0
2017-Sep-20 02:58N 37°49' W 122°20'0 0.0
2017-Sep-20 02:28N 37°49' W 122°20'0 0.0
2017-Sep-20 01:58N 37°49' W 122°20'0 0.0
2017-Sep-20 01:28N 37°49' W 122°20'0 0.0
2017-Sep-20 00:58N 37°49' W 122°20'0 0.0
2017-Sep-20 00:28N 37°49' W 122°20'0 0.0
2017-Sep-19 23:58N 37°49' W 122°20'0 0.0
2017-Sep-19 23:28N 37°49' W 122°20'0 0.1
2017-Sep-19 22:58N 37°49' W 122°20'0 0.1
2017-Sep-19 22:28N 37°49' W 122°20'0 0.0
2017-Sep-19 21:58N 37°49' W 122°20'0 0.0
2017-Sep-19 21:28N 37°49' W 122°20'0 0.0
2017-Sep-19 20:58N 37°49' W 122°20'0 0.0
2017-Sep-19 20:28N 37°49' W 122°20'0 0.0
2017-Sep-19 19:58N 37°49' W 122°20'0 0.0
2017-Sep-19 19:28N 37°49' W 122°20'0 0.0
2017-Sep-19 18:58N 37°49' W 122°20'0 0.1
2017-Sep-19 18:28N 37°49' W 122°20'0 0.0
2017-Sep-19 17:58N 37°49' W 122°20'0 0.1
2017-Sep-19 17:28N 37°49' W 122°20'0 0.0
2017-Sep-19 16:58N 37°49' W 122°20'0 0.0
2017-Sep-19 16:31N 37°49' W 122°20'0 0.0
2017-Sep-19 16:01N 37°49' W 122°20'0 0.0
2017-Sep-19 15:28N 37°49' W 122°20'0 0.0
2017-Sep-19 15:01N 37°49' W 122°20'0 0.0
2017-Sep-19 14:28N 37°49' W 122°20'0 0.0
2017-Sep-19 13:58N 37°49' W 122°20'0 0.1
2017-Sep-19 13:30N 37°49' W 122°20'3 5.7
2017-Sep-19 13:00N 37°49' W 122°23'611.3
2017-Sep-19 12:31N 37°48' W 122°30'714.3
2017-Sep-19 12:00N 37°46' W 122°39'4 8.6
2017-Sep-19 11:30N 37°41' W 122°40'713.8
2017-Sep-19 11:00N 37°35' W 122°40'713.7
2017-Sep-19 10:30N 37°28' W 122°40'612.5
2017-Sep-19 10:00N 37°21' W 122°40'714.4
2017-Sep-19 09:31N 37°14' W 122°40'917.3
2017-Sep-19 09:01N 37°06' W 122°39'917.7
2017-Sep-19 08:30N 36°57' W 122°35'7718.1
2017-Sep-19 04:15N 35°48' W 121°53'417.8
2017-Sep-19 04:00N 35°45' W 121°50'1417.4
2017-Sep-19 03:12N 35°33' W 121°41'517.5
2017-Sep-19 02:56N 35°29' W 121°39'817.4
2017-Sep-19 02:30N 35°22' W 121°34'816.8
2017-Sep-19 02:01N 35°15' W 121°29'917.5
2017-Sep-19 01:30N 35°07' W 121°23'917.7
2017-Sep-19 01:01N 34°60' W 121°18'917.8
2017-Sep-19 00:31N 34°52' W 121°12'917.6
2017-Sep-19 00:01N 34°45' W 121°07'917.5
2017-Sep-18 23:30N 34°37' W 121°01'816.8
2017-Sep-18 23:01N 34°30' W 120°56'815.5
2017-Sep-18 22:31N 34°25' W 120°48'816.6
2017-Sep-18 22:01N 34°23' W 120°39'916.7
2017-Sep-18 21:30N 34°21' W 120°29'917.4
2017-Sep-18 20:58N 34°19' W 120°18'817.6
2017-Sep-18 20:31N 34°16' W 120°09'917.6
2017-Sep-18 20:00N 34°14' W 119°58'917.3
2017-Sep-18 19:30N 34°12' W 119°48'917.5
2017-Sep-18 19:01N 34°10' W 119°38'917.6
2017-Sep-18 18:30N 34°07' W 119°28'917.5
2017-Sep-18 18:00N 34°05' W 119°18'917.6
2017-Sep-18 17:30N 34°01' W 119°08'714.2
2017-Sep-18 17:00N 33°57' W 119°01'611.4
2017-Sep-18 16:30N 33°55' W 118°55'611.4
2017-Sep-18 16:00N 33°52' W 118°49'611.4
2017-Sep-18 15:30N 33°49' W 118°43'611.5
2017-Sep-18 15:00N 33°46' W 118°37'611.5
2017-Sep-18 14:30N 33°43' W 118°31'611.2
2017-Sep-18 14:00N 33°41' W 118°25'510.9
2017-Sep-18 13:30N 33°38' W 118°19'610.7
2017-Sep-18 12:59N 33°39' W 118°12'5 9.8
2017-Sep-18 12:30N 33°43' W 118°11'2 2.9
2017-Sep-18 11:59N 33°45' W 118°12'0 0.0
2017-Sep-18 11:20N 33°45' W 118°12'0 0.0
2017-Sep-18 10:56N 33°45' W 118°12'0 0.0
2017-Sep-18 04:29N 33°45' W 118°12'0 0.0
2017-Sep-18 03:56N 33°45' W 118°12'0 0.0
2017-Sep-17 20:20N 33°45' W 118°12'0 0.0
2017-Sep-17 19:08N 33°45' W 118°12'0 0.0
2017-Sep-17 18:44N 33°45' W 118°12'0 0.0
2017-Sep-17 18:30N 33°45' W 118°12'0 0.0
2017-Sep-17 08:50N 33°45' W 118°12'0 0.1
2017-Sep-17 08:26N 33°45' W 118°12'0 0.0
2017-Sep-17 05:29N 33°45' W 118°12'0 0.0
2017-Sep-17 04:38N 33°45' W 118°12'0 0.0
2017-Sep-17 04:23N 33°45' W 118°12'0 0.0
2017-Sep-17 00:32N 33°45' W 118°12'0 0.0
2017-Sep-17 00:26N 33°45' W 118°12'0 0.0
2017-Sep-16 22:20N 33°45' W 118°12'0 0.0
2017-Sep-16 21:56N 33°45' W 118°12'0 0.1
2017-Sep-16 21:02N 33°45' W 118°12'0 0.0
2017-Sep-16 20:56N 33°45' W 118°12'0 0.1
2017-Sep-16 20:26N 33°45' W 118°12'0 0.0
2017-Sep-16 19:44N 33°45' W 118°12'0 0.0
2017-Sep-16 19:20N 33°45' W 118°12'0 0.1
2017-Sep-16 18:59N 33°45' W 118°12'0 0.1
2017-Sep-16 18:26N 33°45' W 118°12'0 0.0
2017-Sep-16 07:02N 33°45' W 118°12'0 0.0
2017-Sep-16 06:32N 33°45' W 118°12'0 0.0
2017-Sep-16 03:50N 33°45' W 118°12'0 0.0
2017-Sep-16 03:20N 33°45' W 118°12'0 0.0
2017-Sep-16 02:50N 33°45' W 118°12'0 0.0
2017-Sep-15 23:14N 33°45' W 118°12'0 0.0
2017-Sep-15 22:56N 33°45' W 118°12'0 0.1
2017-Sep-15 21:56N 33°45' W 118°12'0 0.1
2017-Sep-15 21:26N 33°45' W 118°12'0 0.1
2017-Sep-15 20:50N 33°45' W 118°12'0 0.1
2017-Sep-15 20:23N 33°45' W 118°12'0 0.0
2017-Sep-15 19:56N 33°45' W 118°12'0 0.0
2017-Sep-15 19:26N 33°45' W 118°12'0 0.0
2017-Sep-15 18:59N 33°45' W 118°12'0 0.0
2017-Sep-15 09:08N 33°45' W 118°12'0 0.0
2017-Sep-15 08:56N 33°45' W 118°12'0 0.0
2017-Sep-15 08:14N 33°45' W 118°12'0 0.0
2017-Sep-15 07:41N 33°45' W 118°12'0 0.0
2017-Sep-15 05:26N 33°45' W 118°12'0 0.0
2017-Sep-15 04:44N 33°45' W 118°12'0 0.0
2017-Sep-15 04:08N 33°45' W 118°12'0 0.0
2017-Sep-15 03:44N 33°45' W 118°12'0 0.0
2017-Sep-15 03:26N 33°45' W 118°12'0 0.0
2017-Sep-15 02:56N 33°45' W 118°12'0 0.0
2017-Sep-15 00:44N 33°45' W 118°12'0 0.0
2017-Sep-15 00:23N 33°45' W 118°12'0 0.0
2017-Sep-14 23:56N 33°45' W 118°12'0 0.0
2017-Sep-14 23:26N 33°45' W 118°12'0 0.0
2017-Sep-14 22:14N 33°45' W 118°12'0 0.0
2017-Sep-14 21:56N 33°45' W 118°12'1 1.2
2017-Sep-14 21:29N 33°44' W 118°12'3 6.9
2017-Sep-14 21:01N 33°41' W 118°11'3 6.8
2017-Sep-14 20:31N 33°38' W 118°12'4 8.5
2017-Sep-14 20:00N 33°36' W 118°16'610.4
2017-Sep-14 19:29N 33°37' W 118°23'611.7
2017-Sep-14 18:57N 33°40' W 118°30'511.2
2017-Sep-14 18:30N 33°42' W 118°35'611.1
2017-Sep-14 18:01N 33°45' W 118°40'611.0
2017-Sep-14 17:30N 33°48' W 118°46'611.1
2017-Sep-14 17:01N 33°51' W 118°52'611.2
2017-Sep-14 16:31N 33°53' W 118°58'611.4
2017-Sep-14 16:01N 33°56' W 119°04'611.7
2017-Sep-14 15:31N 33°59' W 119°10'611.3
2017-Sep-14 14:59N 34°02' W 119°16'611.8
2017-Sep-14 14:31N 34°04' W 119°22'611.8
2017-Sep-14 14:00N 34°05' W 119°29'611.7
2017-Sep-14 13:28N 34°07' W 119°37'611.6
2017-Sep-14 12:58N 34°09' W 119°43'511.7
2017-Sep-14 12:31N 34°10' W 119°50'611.8
2017-Sep-14 11:59N 34°12' W 119°57'612.2
2017-Sep-14 11:30N 34°13' W 120°04'611.9
2017-Sep-14 11:00N 34°15' W 120°11'611.5
2017-Sep-14 10:29N 34°16' W 120°18'611.5
2017-Sep-14 09:59N 34°18' W 120°24'511.0
2017-Sep-14 09:30N 34°19' W 120°30'5 9.5
2017-Sep-14 09:00N 34°21' W 120°36'5 9.6
2017-Sep-14 08:30N 34°22' W 120°42'5 9.5
2017-Sep-14 08:00N 34°23' W 120°47'5 9.6
2017-Sep-14 07:30N 34°24' W 120°53'510.8
2017-Sep-14 07:01N 34°26' W 120°59'611.5
2017-Sep-14 06:31N 34°29' W 121°05'611.6
2017-Sep-14 06:01N 34°31' W 121°12'611.5
2017-Sep-14 05:31N 34°33' W 121°18'711.4
2017-Sep-14 04:51N 34°35' W 121°27'411.4
2017-Sep-14 04:31N 34°37' W 121°31'611.1
2017-Sep-14 04:01N 34°39' W 121°38'1111.6
2017-Sep-14 03:04N 34°45' W 121°49'111.2
2017-Sep-14 03:00N 34°45' W 121°49'611.4
2017-Sep-14 02:31N 34°48' W 121°56'2711.5
2017-Sep-14 00:11N 34°58' W 122°25'611.8
2017-Sep-13 23:43N 35°01' W 122°32'311.5
2017-Sep-13 23:27N 35°02' W 122°35'511.8
2017-Sep-13 22:59N 35°04' W 122°41'2011.8
2017-Sep-13 21:18N 35°12' W 123°03'311.8
2017-Sep-13 21:01N 35°14' W 123°07'611.9
2017-Sep-13 20:28N 35°16' W 123°14'511.9
2017-Sep-13 20:01N 35°19' W 123°21'612.0
2017-Sep-13 19:31N 35°21' W 123°27'611.9
2017-Sep-13 19:00N 35°24' W 123°34'611.9
2017-Sep-13 18:31N 35°26' W 123°41'611.7
2017-Sep-13 18:00N 35°28' W 123°47'1012.1
2017-Sep-13 17:12N 35°32' W 123°58'21518.1
2017-Sep-13 05:21N 37°10' W 127°56'720.2
2017-Sep-13 04:59N 37°15' W 128°03'  

Dump ship's entire track history